createdAt,value
2023-01-01T00:01:41.801Z,26.50
2023-01-01T00:04:13.437Z,26.50
2023-01-01T00:06:40.670Z,26.50
2023-01-01T00:09:26.444Z,26.40
2023-01-01T00:11:53.054Z,26.50
2023-01-01T00:14:19.748Z,26.50
2023-01-01T00:16:46.401Z,26.50
2023-01-01T00:19:13.022Z,26.40
2023-01-01T00:21:40.237Z,26.40
2023-01-01T00:24:07.549Z,26.50
2023-01-01T00:26:35.451Z,26.40
2023-01-01T00:29:02.715Z,26.40
2023-01-01T00:31:29.720Z,26.50
2023-01-01T00:33:57.121Z,26.40
2023-01-01T00:36:26.446Z,26.40
2023-01-01T00:38:53.903Z,26.40
2023-01-01T00:41:21.456Z,26.40
2023-01-01T00:43:48.321Z,26.40
2023-01-01T00:46:15.481Z,26.40
2023-01-01T00:48:42.288Z,26.40
2023-01-01T00:51:09.641Z,26.40
2023-01-01T00:53:36.606Z,26.40
2023-01-01T00:56:03.996Z,26.40
2023-01-01T00:58:30.658Z,26.40
2023-01-01T01:00:57.308Z,26.40
2023-01-01T01:03:30.325Z,26.40
2023-01-01T01:06:03.108Z,26.40
2023-01-01T01:08:32.172Z,26.40
2023-01-01T01:11:18.097Z,26.60
2023-01-01T01:13:47.169Z,26.40
2023-01-01T01:16:31.788Z,26.40
2023-01-01T01:19:00.532Z,26.40
2023-01-01T01:21:29.963Z,26.40
2023-01-01T01:24:01.899Z,26.40
2023-01-01T01:26:31.370Z,26.40
2023-01-01T01:28:59.686Z,26.40
2023-01-01T01:31:30.149Z,26.40
2023-01-01T01:33:57.417Z,26.40
2023-01-01T01:36:25.542Z,26.40
2023-01-01T01:38:52.545Z,26.40
2023-01-01T01:41:30.018Z,26.40
2023-01-01T01:44:03.005Z,26.40
2023-01-01T01:46:44.028Z,26.40
2023-01-01T01:49:18.091Z,26.40
2023-01-01T01:51:45.561Z,26.40
2023-01-01T01:54:19.565Z,26.40
2023-01-01T01:56:54.612Z,26.40
2023-01-01T01:59:24.759Z,26.40
2023-01-01T02:01:52.436Z,26.40
2023-01-01T02:04:19.590Z,26.40
2023-01-01T02:06:47.038Z,26.40
2023-01-01T02:09:14.062Z,26.40
2023-01-01T02:11:40.665Z,26.40
2023-01-01T02:14:07.777Z,26.40
2023-01-01T02:16:58.226Z,26.40
2023-01-01T02:19:46.299Z,26.40
2023-01-01T02:22:50.308Z,26.40
2023-01-01T02:25:41.086Z,26.40
2023-01-01T02:28:14.337Z,26.40
2023-01-01T02:30:45.575Z,26.40
2023-01-01T02:33:17.343Z,26.40
2023-01-01T02:35:50.373Z,26.40
2023-01-01T02:38:20.394Z,26.40
2023-01-01T02:40:51.281Z,26.40
2023-01-01T02:43:24.435Z,26.40
2023-01-01T02:45:53.351Z,26.40
2023-01-01T02:48:38.611Z,26.40
2023-01-01T02:51:16.673Z,26.40
2023-01-01T02:54:12.217Z,26.40
2023-01-01T02:56:47.472Z,26.40
2023-01-01T02:59:44.611Z,26.40
2023-01-01T03:02:27.917Z,26.40
2023-01-01T03:05:03.564Z,26.40
2023-01-01T03:08:08.886Z,26.40
2023-01-01T03:11:10.971Z,26.40
2023-01-01T03:13:51.344Z,26.40
2023-01-01T03:16:23.908Z,26.40
2023-01-01T03:19:11.735Z,26.40
2023-01-01T03:21:55.815Z,26.40
2023-01-01T03:24:32.470Z,26.40
2023-01-01T03:27:04.905Z,26.40
2023-01-01T03:29:35.352Z,26.40
2023-01-01T03:32:05.256Z,26.40
2023-01-01T03:34:43.478Z,26.40
2023-01-01T03:37:16.060Z,26.40
2023-01-01T03:39:51.229Z,26.40
2023-01-01T03:42:43.754Z,26.40
2023-01-01T03:45:17.373Z,26.40
2023-01-01T03:47:44.114Z,26.40
2023-01-01T03:50:11.571Z,26.40
2023-01-01T03:52:46.467Z,26.40
2023-01-01T03:55:25.005Z,26.40
2023-01-01T03:58:08.422Z,26.40
2023-01-01T04:00:44.084Z,26.40
2023-01-01T04:03:23.722Z,26.40
2023-01-01T04:05:50.932Z,26.40
2023-01-01T04:08:18.127Z,26.30
2023-01-01T04:11:00.822Z,26.30
2023-01-01T04:13:27.492Z,26.40
2023-01-01T04:15:54.171Z,26.40
2023-01-01T04:18:20.879Z,26.40
2023-01-01T04:20:47.506Z,26.40
2023-01-01T04:23:14.116Z,26.40
2023-01-01T04:25:40.778Z,26.40
2023-01-01T04:28:07.368Z,26.30
2023-01-01T04:32:59.595Z,26.40
2023-01-01T04:35:26.278Z,26.40
2023-01-01T04:37:52.978Z,26.30
2023-01-01T04:40:19.795Z,26.30
2023-01-01T04:42:46.497Z,26.30
2023-01-01T04:45:15.003Z,26.30
2023-01-01T04:47:42.081Z,26.10
2023-01-01T04:50:09.342Z,26.30
2023-01-01T04:52:36.129Z,26.30
2023-01-01T04:55:02.761Z,26.30
2023-01-01T04:57:30.862Z,26.30
2023-01-01T04:59:57.630Z,26.30
2023-01-01T05:02:24.398Z,26.30
2023-01-01T05:04:51.141Z,26.30
2023-01-01T05:07:17.777Z,26.30
2023-01-01T05:09:44.489Z,26.30
2023-01-01T05:12:11.131Z,26.40
2023-01-01T05:14:37.745Z,26.30
2023-01-01T05:17:04.399Z,26.30
2023-01-01T05:19:30.997Z,26.30
2023-01-01T05:21:57.632Z,26.30
2023-01-01T05:24:24.279Z,26.30
2023-01-01T05:26:50.972Z,26.30
2023-01-01T05:29:19.614Z,26.30
2023-01-01T05:31:46.644Z,26.30
2023-01-01T05:34:13.528Z,26.30
2023-01-01T05:36:40.289Z,26.40
2023-01-01T05:39:08.826Z,26.30
2023-01-01T05:41:38.527Z,26.30
2023-01-01T05:44:08.799Z,26.30
2023-01-01T05:46:36.132Z,26.30
2023-01-01T05:49:03.086Z,26.30
2023-01-01T05:53:58.114Z,26.30
2023-01-01T05:56:25.581Z,26.30
2023-01-01T05:58:52.595Z,26.30
2023-01-01T06:01:27.550Z,26.30
2023-01-01T06:03:55.899Z,26.30
2023-01-01T06:06:28.773Z,26.30
2023-01-01T06:08:58.008Z,26.30
2023-01-01T06:11:25.084Z,26.20
2023-01-01T06:13:56.271Z,26.20
2023-01-01T06:16:23.581Z,26.30
2023-01-01T06:18:50.503Z,26.30
2023-01-01T06:21:20.120Z,26.30
2023-01-01T06:23:47.523Z,26.20
2023-01-01T06:26:21.028Z,26.30
2023-01-01T06:28:48.188Z,26.20
2023-01-01T06:31:16.937Z,26.20
2023-01-01T06:33:44.445Z,26.20
2023-01-01T06:36:14.073Z,26.20
2023-01-01T06:38:43.332Z,26.20
2023-01-01T06:41:29.128Z,26.20
2023-01-01T06:43:57.029Z,26.20
2023-01-01T06:46:25.948Z,26.20
2023-01-01T06:48:58.224Z,26.20
2023-01-01T06:51:30.627Z,26.20
2023-01-01T06:54:02.173Z,26.20
2023-01-01T06:56:29.925Z,26.20
2023-01-01T06:58:57.187Z,26.20
2023-01-01T07:01:29.342Z,26.20
2023-01-01T07:04:05.039Z,26.20
2023-01-01T07:06:32.944Z,26.20
2023-01-01T07:08:59.575Z,26.20
2023-01-01T07:11:26.926Z,26.20
2023-01-01T07:13:54.305Z,26.20
2023-01-01T07:16:21.759Z,26.20
2023-01-01T07:18:50.380Z,26.20
2023-01-01T07:21:35.870Z,26.20
2023-01-01T07:24:05.271Z,26.20
2023-01-01T07:26:33.316Z,26.20
2023-01-01T07:29:07.017Z,26.20
2023-01-01T07:31:40.016Z,26.20
2023-01-01T07:34:07.756Z,26.30
2023-01-01T07:36:34.685Z,26.30
2023-01-01T07:39:01.463Z,26.30
2023-01-01T07:41:28.179Z,26.20
2023-01-01T07:43:54.878Z,26.20
2023-01-01T07:46:21.654Z,26.30
2023-01-01T07:48:49.257Z,26.20
2023-01-01T07:51:15.868Z,26.30
2023-01-01T07:53:42.543Z,26.30
2023-01-01T07:56:09.389Z,26.20
2023-01-01T07:58:39.869Z,26.30
2023-01-01T08:01:06.548Z,26.20
2023-01-01T08:03:33.304Z,26.30
2023-01-01T08:06:00.055Z,26.30
2023-01-01T08:08:26.690Z,26.20
2023-01-01T08:10:53.339Z,26.20
2023-01-01T08:13:19.956Z,26.20
2023-01-01T08:15:46.810Z,26.20
2023-01-01T08:18:13.512Z,26.20
2023-01-01T08:20:40.316Z,26.20
2023-01-01T08:23:07.760Z,26.20
2023-01-01T08:25:35.073Z,26.30
2023-01-01T08:28:01.769Z,26.20
2023-01-01T08:30:28.564Z,26.30
2023-01-01T08:32:55.507Z,26.20
2023-01-01T08:35:22.226Z,26.20
2023-01-01T08:37:48.894Z,26.20
2023-01-01T08:40:16.407Z,26.20
2023-01-01T08:42:43.126Z,26.20
2023-01-01T08:45:10.343Z,26.20
2023-01-01T08:47:37.019Z,26.20
2023-01-01T08:50:04.245Z,26.20
2023-01-01T08:52:31.938Z,26.20
2023-01-01T08:54:58.616Z,26.20
2023-01-01T08:57:25.281Z,26.20
2023-01-01T08:59:52.062Z,26.20
2023-01-01T09:02:18.854Z,26.20
2023-01-01T09:04:45.620Z,26.20
2023-01-01T09:07:12.261Z,26.20
2023-01-01T09:09:39.079Z,26.20
2023-01-01T09:12:07.129Z,26.20
2023-01-01T09:14:34.310Z,26.20
2023-01-01T09:17:01.527Z,26.20
2023-01-01T09:19:28.399Z,26.20
2023-01-01T09:21:55.384Z,26.20
2023-01-01T09:24:22.373Z,26.20
2023-01-01T09:26:49.204Z,26.30
2023-01-01T09:29:20.730Z,26.30
2023-01-01T09:31:49.086Z,26.20
2023-01-01T09:34:17.917Z,26.20
2023-01-01T09:36:45.456Z,26.20
2023-01-01T09:39:16.180Z,26.30
2023-01-01T09:42:04.834Z,26.20
2023-01-01T09:45:04.958Z,26.20
2023-01-01T09:47:38.238Z,26.20
2023-01-01T09:50:32.344Z,26.20
2023-01-01T09:53:04.157Z,26.30
2023-01-01T09:55:42.025Z,26.30
2023-01-01T09:58:11.365Z,26.20
2023-01-01T10:00:41.953Z,26.40
2023-01-01T10:03:33.057Z,26.20
2023-01-01T10:06:22.039Z,26.20
2023-01-01T10:09:10.912Z,26.30
2023-01-01T10:12:17.215Z,26.30
2023-01-01T10:14:48.793Z,26.20
2023-01-01T10:17:39.068Z,26.20
2023-01-01T10:20:19.709Z,26.30
2023-01-01T10:22:53.350Z,26.20
2023-01-01T10:25:25.431Z,26.20
2023-01-01T10:28:04.304Z,26.20
2023-01-01T10:30:31.198Z,26.20
2023-01-01T10:32:59.105Z,26.20
2023-01-01T10:35:31.422Z,26.20
2023-01-01T10:38:03.449Z,26.20
2023-01-01T10:40:30.837Z,26.20
2023-01-01T10:42:59.221Z,26.20
2023-01-01T10:45:30.991Z,26.20
2023-01-01T10:48:12.520Z,26.20
2023-01-01T10:50:54.569Z,26.20
2023-01-01T10:53:23.758Z,26.20
2023-01-01T10:55:57.113Z,26.20
2023-01-01T10:58:48.578Z,26.20
2023-01-01T11:01:18.164Z,26.10
2023-01-01T11:04:01.011Z,26.20
2023-01-01T11:06:42.484Z,26.20
2023-01-01T11:09:27.841Z,26.20
2023-01-01T11:12:15.140Z,26.20
2023-01-01T11:14:54.493Z,26.20
2023-01-01T11:17:26.912Z,26.10
2023-01-01T11:20:01.306Z,26.10
2023-01-01T11:22:37.410Z,26.10
2023-01-01T11:25:16.742Z,26.10
2023-01-01T11:27:43.732Z,26.10
2023-01-01T11:30:27.211Z,26.10
2023-01-01T11:33:01.183Z,26.10
2023-01-01T11:35:33.237Z,26.10
2023-01-01T11:38:00.172Z,26.10
2023-01-01T11:40:37.144Z,26.10
2023-01-01T11:43:06.861Z,26.10
2023-01-01T11:45:38.964Z,26.10
2023-01-01T11:48:17.704Z,26.10
2023-01-01T11:50:54.148Z,26.10
2023-01-01T11:53:24.426Z,26.10
2023-01-01T11:56:10.243Z,26.10
2023-01-01T11:58:36.843Z,26.10
2023-01-01T12:01:14.752Z,26.30
2023-01-01T12:03:56.639Z,26.10
2023-01-01T12:06:43.603Z,26.10
2023-01-01T12:09:47.751Z,26.10
2023-01-01T12:12:29.155Z,26.10
2023-01-01T12:14:57.919Z,26.10
2023-01-01T12:17:58.099Z,26.10
2023-01-01T12:20:37.263Z,26.10
2023-01-01T12:23:04.163Z,26.10
2023-01-01T12:25:40.576Z,26.10
2023-01-01T12:28:16.474Z,26.10
2023-01-01T12:31:07.244Z,26.10
2023-01-01T12:33:55.122Z,26.10
2023-01-01T12:36:57.116Z,26.10
2023-01-01T12:39:42.676Z,26.10
2023-01-01T12:42:30.592Z,26.10
2023-01-01T12:45:31.221Z,26.10
2023-01-01T12:48:23.455Z,26.10
2023-01-01T12:51:41.576Z,26.10
2023-01-01T12:54:41.946Z,26.10
2023-01-01T12:57:26.759Z,26.10
2023-01-01T12:59:54.801Z,26.10
2023-01-01T13:02:28.201Z,26.10
2023-01-01T13:05:01.007Z,26.10
2023-01-01T13:07:36.241Z,26.10
2023-01-01T13:10:34.288Z,26.10
2023-01-01T13:13:01.759Z,26.10
2023-01-01T13:15:37.367Z,26.10
2023-01-01T13:18:15.260Z,26.10
2023-01-01T13:20:43.797Z,26.10
2023-01-01T13:23:29.324Z,26.10
2023-01-01T13:26:17.848Z,26.10
2023-01-01T13:28:59.610Z,26.10
2023-01-01T13:31:38.443Z,26.10
2023-01-01T13:34:30.078Z,26.10
2023-01-01T13:37:14.969Z,26.10
2023-01-01T13:39:56.962Z,26.10
2023-01-01T13:42:42.321Z,26.10
2023-01-01T13:45:37.007Z,26.10
2023-01-01T13:48:45.838Z,26.10
2023-01-01T13:54:51.113Z,26.10
2023-01-01T13:57:43.889Z,26.10
2023-01-01T14:00:54.847Z,26.10
2023-01-01T14:03:24.556Z,26.10
2023-01-01T14:06:04.811Z,26.10
2023-01-01T14:08:35.719Z,26.10
2023-01-01T14:11:17.275Z,26.10
2023-01-01T14:13:44.042Z,25.90
2023-01-01T14:16:13.758Z,26.10
2023-01-01T14:18:42.381Z,26.10
2023-01-01T14:21:15.253Z,26.10
2023-01-01T14:23:49.417Z,26.10
2023-01-01T14:26:19.774Z,26.10
2023-01-01T14:28:46.746Z,26.10
2023-01-01T14:31:17.291Z,26.10
2023-01-01T14:33:44.350Z,26.10
2023-01-01T14:36:28.421Z,26.10
2023-01-01T14:38:57.170Z,26.10
2023-01-01T14:41:41.449Z,26.10
2023-01-01T14:44:16.716Z,26.10
2023-01-01T14:46:46.385Z,26.10
2023-01-01T14:49:18.829Z,26.10
2023-01-01T14:51:49.594Z,26.10
2023-01-01T14:54:21.210Z,26.10
2023-01-01T14:56:49.934Z,26.10
2023-01-01T14:59:32.710Z,26.10
2023-01-01T15:02:04.339Z,26.10
2023-01-01T15:04:31.172Z,26.10
2023-01-01T15:07:00.503Z,26.10
2023-01-01T15:09:28.919Z,26.10
2023-01-01T15:11:56.765Z,26.10
2023-01-01T15:14:43.777Z,26.10
2023-01-01T15:17:13.044Z,26.10
2023-01-01T15:19:42.389Z,26.10
2023-01-01T15:22:35.423Z,26.10
2023-01-01T15:25:03.119Z,26.10
2023-01-01T15:27:32.666Z,26.10
2023-01-01T15:30:00.167Z,26.10
2023-01-01T15:32:30.074Z,26.10
2023-01-01T15:34:59.918Z,26.10
2023-01-01T15:37:36.361Z,26.10
2023-01-01T15:40:13.984Z,26.10
2023-01-01T15:42:45.831Z,26.10
2023-01-01T15:45:26.252Z,26.10
2023-01-01T15:48:06.636Z,26.10
2023-01-01T15:50:40.221Z,26.10
2023-01-01T15:53:27.803Z,26.10
2023-01-01T15:55:59.229Z,26.10
2023-01-01T15:58:39.961Z,26.10
2023-01-01T16:01:14.292Z,26.10
2023-01-01T16:03:42.377Z,26.10
2023-01-01T16:06:18.784Z,26.20
2023-01-01T16:08:45.501Z,26.10
2023-01-01T16:11:14.316Z,26.10
2023-01-01T16:13:41.120Z,26.10
2023-01-01T16:16:26.227Z,26.10
2023-01-01T16:18:54.083Z,26.10
2023-01-01T16:21:21.738Z,26.10
2023-01-01T16:23:48.396Z,26.10
2023-01-01T16:26:15.085Z,26.10
2023-01-01T16:28:41.839Z,26.20
2023-01-01T16:31:17.021Z,26.10
2023-01-01T16:33:47.466Z,26.10
2023-01-01T16:36:14.090Z,26.10
2023-01-01T16:38:40.724Z,26.10
2023-01-01T16:41:15.436Z,26.10
2023-01-01T16:43:43.208Z,26.10
2023-01-01T16:46:13.463Z,26.10
2023-01-01T16:48:41.088Z,26.10
2023-01-01T16:51:35.022Z,26.10
2023-01-01T16:54:02.239Z,26.10
2023-01-01T16:56:29.117Z,26.10
2023-01-01T16:59:02.690Z,26.10
2023-01-01T17:01:30.497Z,26.10
2023-01-01T17:03:57.459Z,26.10
2023-01-01T17:06:24.132Z,26.10
2023-01-01T17:08:51.099Z,26.20
2023-01-01T17:11:18.731Z,26.10
2023-01-01T17:13:47.604Z,26.10
2023-01-01T17:16:21.365Z,26.10
2023-01-01T17:21:39.943Z,26.10
2023-01-01T17:24:06.893Z,26.10
2023-01-01T17:26:33.552Z,26.10
2023-01-01T17:29:01.227Z,26.10
2023-01-01T17:31:29.185Z,26.10
2023-01-01T17:33:56.685Z,26.10
2023-01-01T17:36:23.447Z,26.10
2023-01-01T17:38:50.149Z,26.10
2023-01-01T17:41:17.462Z,26.10
2023-01-01T17:43:46.928Z,26.10
2023-01-01T17:46:16.349Z,26.10
2023-01-01T17:48:44.583Z,26.10
2023-01-01T17:51:12.552Z,26.10
2023-01-01T17:53:39.975Z,26.10
2023-01-01T17:56:14.921Z,26.10
2023-01-01T17:58:43.754Z,26.10
2023-01-01T18:01:10.481Z,26.10
2023-01-01T18:03:37.909Z,26.10
2023-01-01T18:06:05.005Z,26.10
2023-01-01T18:08:32.990Z,26.10
2023-01-01T18:11:00.321Z,26.10
2023-01-01T18:13:27.404Z,26.10
2023-01-01T18:15:54.404Z,26.10
2023-01-01T18:18:21.117Z,26.10
2023-01-01T18:20:47.824Z,26.10
2023-01-01T18:23:14.475Z,26.10
2023-01-01T18:25:41.110Z,26.10
2023-01-01T18:28:10.263Z,26.10
2023-01-01T18:30:36.943Z,26.10
2023-01-01T18:33:03.697Z,26.10
2023-01-01T18:35:30.356Z,26.10
2023-01-01T18:37:57.373Z,26.10
2023-01-01T18:40:24.169Z,26.10
2023-01-01T18:43:05.938Z,26.10
2023-01-01T18:45:34.797Z,26.10
2023-01-01T18:48:02.927Z,26.10
2023-01-01T18:50:31.902Z,26.10
2023-01-01T18:53:09.129Z,26.10
2023-01-01T18:55:35.863Z,26.10
2023-01-01T18:58:18.128Z,26.10
2023-01-01T19:00:44.838Z,26.10
2023-01-01T19:03:27.862Z,26.10
2023-01-01T19:05:56.112Z,26.10
2023-01-01T19:08:23.562Z,26.10
2023-01-01T19:10:57.562Z,26.10
2023-01-01T19:13:34.417Z,26.10
2023-01-01T19:16:03.159Z,26.10
2023-01-01T19:18:31.692Z,26.10
2023-01-01T19:21:13.367Z,26.10
2023-01-01T19:23:46.604Z,26.10
2023-01-01T19:26:26.243Z,26.10
2023-01-01T19:28:55.247Z,26.10
2023-01-01T19:31:22.678Z,26.10
2023-01-01T19:33:49.745Z,26.10
2023-01-01T19:36:16.501Z,26.10
2023-01-01T19:38:44.100Z,26.10
2023-01-01T19:41:11.184Z,26.10
2023-01-01T19:43:38.645Z,26.10
2023-01-01T19:46:05.457Z,26.10
2023-01-01T19:48:32.188Z,26.10
2023-01-01T19:50:58.919Z,26.10
2023-01-01T19:53:25.550Z,26.10
2023-01-01T19:55:52.194Z,26.10
2023-01-01T19:58:22.967Z,26.10
2023-01-01T20:00:50.138Z,26.10
2023-01-01T20:06:04.102Z,26.10
2023-01-01T20:08:31.522Z,26.10
2023-01-01T20:10:58.896Z,26.10
2023-01-01T20:13:25.603Z,26.10
2023-01-01T20:15:52.281Z,26.10
2023-01-01T20:18:18.943Z,26.10
2023-01-01T20:21:15.635Z,26.10
2023-01-01T20:23:45.031Z,26.10
2023-01-01T20:26:11.786Z,26.20
2023-01-01T20:28:57.070Z,26.10
2023-01-01T20:31:23.951Z,26.10
2023-01-01T20:33:50.778Z,26.10
2023-01-01T20:36:35.824Z,26.10
2023-01-01T20:39:02.589Z,26.10
2023-01-01T20:41:29.194Z,26.10
2023-01-01T20:43:59.770Z,26.10
2023-01-01T20:46:26.679Z,26.10
2023-01-01T20:48:53.832Z,26.10
2023-01-01T20:51:20.623Z,26.10
2023-01-01T20:53:47.497Z,26.10
2023-01-01T20:56:14.203Z,26.10
2023-01-01T20:58:47.660Z,26.10
2023-01-01T21:01:15.995Z,26.10
2023-01-01T21:03:42.917Z,26.10
2023-01-01T21:06:09.720Z,26.10
2023-01-01T21:08:36.393Z,26.10
2023-01-01T21:11:03.056Z,26.10
2023-01-01T21:13:29.945Z,26.10
2023-01-01T21:16:00.400Z,26.10
2023-01-01T21:18:30.272Z,26.10
2023-01-01T21:20:56.986Z,26.10
2023-01-01T21:23:29.738Z,26.10
2023-01-01T21:25:56.902Z,26.10
2023-01-01T21:28:28.144Z,26.10
2023-01-01T21:30:57.051Z,26.10
2023-01-01T21:33:32.167Z,26.10
2023-01-01T21:36:05.387Z,26.10
2023-01-01T21:38:32.613Z,26.10
2023-01-01T21:41:00.841Z,26.10
2023-01-01T21:43:45.212Z,26.10
2023-01-01T21:46:30.315Z,26.10
2023-01-01T21:49:16.886Z,26.10
2023-01-01T21:51:56.467Z,26.10
2023-01-01T21:54:30.481Z,26.10
2023-01-01T21:57:00.058Z,26.10
2023-01-01T21:59:37.409Z,26.10
2023-01-01T22:02:07.127Z,26.00
2023-01-01T22:04:45.749Z,25.90
2023-01-01T22:07:56.549Z,26.00
2023-01-01T22:10:13.963Z,26.00
2023-01-01T22:12:40.979Z,26.00
2023-01-01T22:15:26.499Z,26.00
2023-01-01T22:17:59.573Z,26.00
2023-01-01T22:20:26.364Z,26.00
2023-01-01T22:22:53.007Z,26.00
2023-01-01T22:25:32.948Z,26.00
2023-01-01T22:28:15.452Z,26.00
2023-01-01T22:30:43.837Z,26.00
2023-01-01T22:33:27.950Z,26.00
2023-01-01T22:35:56.951Z,26.00
2023-01-01T22:38:31.994Z,26.00
2023-01-01T22:40:58.830Z,26.00
2023-01-01T22:43:30.890Z,26.00
2023-01-01T22:45:59.933Z,26.00
2023-01-01T22:48:36.721Z,26.00
2023-01-01T22:51:18.758Z,26.00
2023-01-01T22:53:45.603Z,26.00
2023-01-01T22:56:12.329Z,26.00
2023-01-01T22:58:38.968Z,26.00
2023-01-01T23:01:06.393Z,25.90
2023-01-01T23:03:33.170Z,25.90
2023-01-01T23:06:00.124Z,25.90
2023-01-01T23:08:27.010Z,25.90
2023-01-01T23:10:54.202Z,25.90
2023-01-01T23:13:39.637Z,25.90
2023-01-01T23:16:06.289Z,25.90
2023-01-01T23:18:35.732Z,25.90
2023-01-01T23:21:06.939Z,25.90
2023-01-01T23:23:33.870Z,25.90
2023-01-01T23:26:01.334Z,25.90
2023-01-01T23:28:30.321Z,25.90
2023-01-01T23:30:59.459Z,25.90
2023-01-01T23:33:26.684Z,25.90
2023-01-01T23:35:53.705Z,25.90
2023-01-01T23:38:21.547Z,26.00
2023-01-01T23:40:48.178Z,25.90
2023-01-01T23:43:14.822Z,25.90
2023-01-01T23:45:41.587Z,25.90
2023-01-01T23:48:08.419Z,25.90
2023-01-01T23:50:35.405Z,25.90
2023-01-01T23:53:02.109Z,25.90
2023-01-01T23:55:28.738Z,25.90
2023-01-01T23:57:55.396Z,25.90
